sensor_id;sensor_type;location;lat;lon;timestamp;temperature;humidity
74940;HTU21D;63505;45.226;37.908;2023-07-13T00:00:26;20.47;82.04
74940;HTU21D;63505;45.226;37.908;2023-07-13T00:02:52;20.41;82.11
74940;HTU21D;63505;45.226;37.908;2023-07-13T00:05:22;20.31;82.10
74940;HTU21D;63505;45.226;37.908;2023-07-13T00:07:49;20.20;82.29
74940;HTU21D;63505;45.226;37.908;2023-07-13T00:10:16;20.14;82.40
74940;HTU21D;63505;45.226;37.908;2023-07-13T00:12:43;20.10;82.46
74940;HTU21D;63505;45.226;37.908;2023-07-13T00:15:18;20.03;82.51
74940;HTU21D;63505;45.226;37.908;2023-07-13T00:17:55;20.00;82.55
74940;HTU21D;63505;45.226;37.908;2023-07-13T00:20:24;19.98;82.51
74940;HTU21D;63505;45.226;37.908;2023-07-13T00:22:52;19.97;82.46
74940;HTU21D;63505;45.226;37.908;2023-07-13T00:25:22;19.95;82.46
74940;HTU21D;63505;45.226;37.908;2023-07-13T00:27:50;19.91;82.47
74940;HTU21D;63505;45.226;37.908;2023-07-13T00:30:16;19.89;82.48
74940;HTU21D;63505;45.226;37.908;2023-07-13T00:32:42;19.83;82.51
74940;HTU21D;63505;45.226;37.908;2023-07-13T00:35:09;19.79;82.62
74940;HTU21D;63505;45.226;37.908;2023-07-13T00:37:35;19.74;82.70
74940;HTU21D;63505;45.226;37.908;2023-07-13T00:40:03;19.75;82.75
74940;HTU21D;63505;45.226;37.908;2023-07-13T00:42:30;19.76;82.75
74940;HTU21D;63505;45.226;37.908;2023-07-13T00:47:32;19.77;82.70
74940;HTU21D;63505;45.226;37.908;2023-07-13T00:49:59;19.80;82.75
74940;HTU21D;63505;45.226;37.908;2023-07-13T00:52:26;19.81;82.75
74940;HTU21D;63505;45.226;37.908;2023-07-13T00:54:54;19.82;82.76
74940;HTU21D;63505;45.226;37.908;2023-07-13T00:57:21;19.83;82.81
74940;HTU21D;63505;45.226;37.908;2023-07-13T00:59:52;19.81;82.89
74940;HTU21D;63505;45.226;37.908;2023-07-13T01:02:18;19.80;82.95
74940;HTU21D;63505;45.226;37.908;2023-07-13T01:04:44;19.80;83.03
74940;HTU21D;63505;45.226;37.908;2023-07-13T01:07:11;19.80;83.11
74940;HTU21D;63505;45.226;37.908;2023-07-13T01:09:38;19.80;83.18
74940;HTU21D;63505;45.226;37.908;2023-07-13T01:12:04;19.80;83.24
74940;HTU21D;63505;45.226;37.908;2023-07-13T01:14:30;19.79;83.28
74940;HTU21D;63505;45.226;37.908;2023-07-13T01:16:56;19.77;83.32
74940;HTU21D;63505;45.226;37.908;2023-07-13T01:19:44;19.76;83.44
74940;HTU21D;63505;45.226;37.908;2023-07-13T01:22:13;19.75;83.48
74940;HTU21D;63505;45.226;37.908;2023-07-13T01:24:42;19.72;83.49
74940;HTU21D;63505;45.226;37.908;2023-07-13T01:27:13;19.70;83.65
74940;HTU21D;63505;45.226;37.908;2023-07-13T01:29:41;19.70;83.71
74940;HTU21D;63505;45.226;37.908;2023-07-13T01:32:15;19.72;83.74
74940;HTU21D;63505;45.226;37.908;2023-07-13T01:34:42;19.72;83.73
74940;HTU21D;63505;45.226;37.908;2023-07-13T01:37:12;19.71;83.81
74940;HTU21D;63505;45.226;37.908;2023-07-13T01:39:38;19.67;83.87
74940;HTU21D;63505;45.226;37.908;2023-07-13T01:42:04;19.66;83.99
74940;HTU21D;63505;45.226;37.908;2023-07-13T01:44:31;19.65;84.04
74940;HTU21D;63505;45.226;37.908;2023-07-13T01:46:57;19.63;84.07
74940;HTU21D;63505;45.226;37.908;2023-07-13T01:49:23;19.59;84.21
74940;HTU21D;63505;45.226;37.908;2023-07-13T01:51:49;19.56;84.32
74940;HTU21D;63505;45.226;37.908;2023-07-13T01:54:15;19.56;84.44
74940;HTU21D;63505;45.226;37.908;2023-07-13T01:56:45;19.55;84.47
74940;HTU21D;63505;45.226;37.908;2023-07-13T01:59:11;19.54;84.53
74940;HTU21D;63505;45.226;37.908;2023-07-13T02:01:36;19.54;84.56
74940;HTU21D;63505;45.226;37.908;2023-07-13T02:04:03;19.53;84.59
74940;HTU21D;63505;45.226;37.908;2023-07-13T02:06:32;19.53;84.62
74940;HTU21D;63505;45.226;37.908;2023-07-13T02:08:58;19.53;84.64
74940;HTU21D;63505;45.226;37.908;2023-07-13T02:11:25;19.51;84.61
74940;HTU21D;63505;45.226;37.908;2023-07-13T02:13:51;19.48;84.67
74940;HTU21D;63505;45.226;37.908;2023-07-13T02:16:17;19.50;84.69
74940;HTU21D;63505;45.226;37.908;2023-07-13T02:18:43;19.51;84.71
74940;HTU21D;63505;45.226;37.908;2023-07-13T02:21:09;19.52;84.71
74940;HTU21D;63505;45.226;37.908;2023-07-13T02:23:35;19.53;84.69
74940;HTU21D;63505;45.226;37.908;2023-07-13T02:26:03;19.54;84.72
74940;HTU21D;63505;45.226;37.908;2023-07-13T02:28:29;19.55;84.74
74940;HTU21D;63505;45.226;37.908;2023-07-13T02:30:55;19.57;84.77
74940;HTU21D;63505;45.226;37.908;2023-07-13T02:33:20;19.60;84.79
74940;HTU21D;63505;45.226;37.908;2023-07-13T02:35:47;19.63;84.81
74940;HTU21D;63505;45.226;37.908;2023-07-13T02:38:13;19.65;84.84
74940;HTU21D;63505;45.226;37.908;2023-07-13T02:40:39;19.68;84.84
74940;HTU21D;63505;45.226;37.908;2023-07-13T02:43:07;19.70;84.88
74940;HTU21D;63505;45.226;37.908;2023-07-13T02:45:32;19.75;84.93
74940;HTU21D;63505;45.226;37.908;2023-07-13T02:47:58;19.81;84.92
74940;HTU21D;63505;45.226;37.908;2023-07-13T02:50:24;19.86;84.93
74940;HTU21D;63505;45.226;37.908;2023-07-13T02:52:50;19.92;84.93
74940;HTU21D;63505;45.226;37.908;2023-07-13T02:55:16;19.97;84.93
74940;HTU21D;63505;45.226;37.908;2023-07-13T02:57:43;20.05;84.92
74940;HTU21D;63505;45.226;37.908;2023-07-13T03:00:10;20.13;84.91
74940;HTU21D;63505;45.226;37.908;2023-07-13T03:02:36;20.18;84.90
74940;HTU21D;63505;45.226;37.908;2023-07-13T03:05:02;20.25;84.92
74940;HTU21D;63505;45.226;37.908;2023-07-13T03:07:29;20.33;84.94
74940;HTU21D;63505;45.226;37.908;2023-07-13T03:09:56;20.42;84.93
74940;HTU21D;63505;45.226;37.908;2023-07-13T03:12:25;20.49;84.91
74940;HTU21D;63505;45.226;37.908;2023-07-13T03:14:51;20.59;84.91
74940;HTU21D;63505;45.226;37.908;2023-07-13T03:17:17;20.68;84.92
74940;HTU21D;63505;45.226;37.908;2023-07-13T03:19:43;20.77;84.93
74940;HTU21D;63505;45.226;37.908;2023-07-13T03:22:11;20.88;84.90
74940;HTU21D;63505;45.226;37.908;2023-07-13T03:24:38;20.94;84.87
74940;HTU21D;63505;45.226;37.908;2023-07-13T03:27:05;21.06;84.85
74940;HTU21D;63505;45.226;37.908;2023-07-13T03:29:33;21.15;84.81
74940;HTU21D;63505;45.226;37.908;2023-07-13T03:32:00;21.23;84.76
74940;HTU21D;63505;45.226;37.908;2023-07-13T03:34:26;21.34;84.68
74940;HTU21D;63505;45.226;37.908;2023-07-13T03:36:54;21.46;84.60
74940;HTU21D;63505;45.226;37.908;2023-07-13T03:39:20;21.55;84.54
74940;HTU21D;63505;45.226;37.908;2023-07-13T03:41:49;21.64;84.26
74940;HTU21D;63505;45.226;37.908;2023-07-13T03:44:16;21.75;84.19
74940;HTU21D;63505;45.226;37.908;2023-07-13T03:46:47;21.87;84.16
74940;HTU21D;63505;45.226;37.908;2023-07-13T03:49:14;21.98;84.08
74940;HTU21D;63505;45.226;37.908;2023-07-13T03:51:39;22.09;84.01
74940;HTU21D;63505;45.226;37.908;2023-07-13T03:54:06;22.22;83.94
74940;HTU21D;63505;45.226;37.908;2023-07-13T03:56:33;22.32;83.79
74940;HTU21D;63505;45.226;37.908;2023-07-13T03:59:01;22.40;83.69
74940;HTU21D;63505;45.226;37.908;2023-07-13T04:01:29;22.49;83.56
74940;HTU21D;63505;45.226;37.908;2023-07-13T04:03:55;22.57;83.46
74940;HTU21D;63505;45.226;37.908;2023-07-13T04:06:25;22.68;83.31
74940;HTU21D;63505;45.226;37.908;2023-07-13T04:08:54;22.78;83.05
74940;HTU21D;63505;45.226;37.908;2023-07-13T04:11:20;22.85;82.92
74940;HTU21D;63505;45.226;37.908;2023-07-13T04:13:47;22.94;82.71
74940;HTU21D;63505;45.226;37.908;2023-07-13T04:16:14;23.03;82.64
74940;HTU21D;63505;45.226;37.908;2023-07-13T04:18:40;23.14;82.52
74940;HTU21D;63505;45.226;37.908;2023-07-13T04:21:07;23.25;82.39
74940;HTU21D;63505;45.226;37.908;2023-07-13T04:23:33;23.35;82.27
74940;HTU21D;63505;45.226;37.908;2023-07-13T04:25:59;23.43;82.16
74940;HTU21D;63505;45.226;37.908;2023-07-13T04:28:26;23.51;82.03
74940;HTU21D;63505;45.226;37.908;2023-07-13T04:30:52;23.61;81.94
74940;HTU21D;63505;45.226;37.908;2023-07-13T04:33:19;23.70;81.78
74940;HTU21D;63505;45.226;37.908;2023-07-13T04:35:49;23.79;81.56
74940;HTU21D;63505;45.226;37.908;2023-07-13T04:38:23;23.89;81.36
74940;HTU21D;63505;45.226;37.908;2023-07-13T04:40:50;23.98;81.11
74940;HTU21D;63505;45.226;37.908;2023-07-13T04:43:18;24.06;80.91
74940;HTU21D;63505;45.226;37.908;2023-07-13T04:45:44;24.14;80.70
74940;HTU21D;63505;45.226;37.908;2023-07-13T04:48:09;24.25;80.50
74940;HTU21D;63505;45.226;37.908;2023-07-13T04:50:38;24.35;80.23
74940;HTU21D;63505;45.226;37.908;2023-07-13T04:53:06;24.40;79.91
74940;HTU21D;63505;45.226;37.908;2023-07-13T04:55:32;24.45;79.62
74940;HTU21D;63505;45.226;37.908;2023-07-13T04:57:58;24.53;79.33
74940;HTU21D;63505;45.226;37.908;2023-07-13T05:00:24;24.59;79.04
74940;HTU21D;63505;45.226;37.908;2023-07-13T05:02:51;24.66;78.67
74940;HTU21D;63505;45.226;37.908;2023-07-13T05:05:17;24.72;78.29
74940;HTU21D;63505;45.226;37.908;2023-07-13T05:07:44;24.76;78.01
74940;HTU21D;63505;45.226;37.908;2023-07-13T05:10:10;24.86;77.77
74940;HTU21D;63505;45.226;37.908;2023-07-13T05:12:36;24.92;77.45
74940;HTU21D;63505;45.226;37.908;2023-07-13T05:15:02;25.00;77.12
74940;HTU21D;63505;45.226;37.908;2023-07-13T05:17:28;25.08;76.84
74940;HTU21D;63505;45.226;37.908;2023-07-13T05:19:54;25.14;76.50
74940;HTU21D;63505;45.226;37.908;2023-07-13T05:22:20;25.23;76.14
74940;HTU21D;63505;45.226;37.908;2023-07-13T05:24:46;25.33;75.78
74940;HTU21D;63505;45.226;37.908;2023-07-13T05:27:12;25.44;75.44
74940;HTU21D;63505;45.226;37.908;2023-07-13T05:29:38;25.57;75.15
74940;HTU21D;63505;45.226;37.908;2023-07-13T05:32:06;25.65;74.94
74940;HTU21D;63505;45.226;37.908;2023-07-13T05:34:32;25.77;74.78
74940;HTU21D;63505;45.226;37.908;2023-07-13T05:36:58;25.87;74.45
74940;HTU21D;63505;45.226;37.908;2023-07-13T05:39:24;25.97;74.15
74940;HTU21D;63505;45.226;37.908;2023-07-13T05:41:50;26.04;73.90
74940;HTU21D;63505;45.226;37.908;2023-07-13T05:44:16;26.11;73.61
74940;HTU21D;63505;45.226;37.908;2023-07-13T05:46:42;26.19;73.31
74940;HTU21D;63505;45.226;37.908;2023-07-13T05:49:09;26.26;72.94
74940;HTU21D;63505;45.226;37.908;2023-07-13T05:51:35;26.34;72.51
74940;HTU21D;63505;45.226;37.908;2023-07-13T05:54:00;26.47;72.07
74940;HTU21D;63505;45.226;37.908;2023-07-13T05:56:26;26.56;71.55
74940;HTU21D;63505;45.226;37.908;2023-07-13T05:58:52;26.64;71.07
74940;HTU21D;63505;45.226;37.908;2023-07-13T06:01:18;26.70;70.72
74940;HTU21D;63505;45.226;37.908;2023-07-13T06:03:46;26.82;70.52
74940;HTU21D;63505;45.226;37.908;2023-07-13T06:06:13;26.96;70.26
74940;HTU21D;63505;45.226;37.908;2023-07-13T06:08:39;27.08;69.85
74940;HTU21D;63505;45.226;37.908;2023-07-13T06:11:18;27.21;69.28
74940;HTU21D;63505;45.226;37.908;2023-07-13T06:13:45;27.31;68.85
74940;HTU21D;63505;45.226;37.908;2023-07-13T06:16:11;27.40;68.26
74940;HTU21D;63505;45.226;37.908;2023-07-13T06:18:39;27.50;67.32
74940;HTU21D;63505;45.226;37.908;2023-07-13T06:21:09;27.57;65.78
74940;HTU21D;63505;45.226;37.908;2023-07-13T06:23:36;27.68;65.82
74940;HTU21D;63505;45.226;37.908;2023-07-13T06:26:04;27.79;65.64
74940;HTU21D;63505;45.226;37.908;2023-07-13T06:28:30;27.96;65.25
74940;HTU21D;63505;45.226;37.908;2023-07-13T06:30:58;28.14;64.65
74940;HTU21D;63505;45.226;37.908;2023-07-13T06:33:25;28.18;62.83
74940;HTU21D;63505;45.226;37.908;2023-07-13T06:35:51;28.33;62.70
74940;HTU21D;63505;45.226;37.908;2023-07-13T06:38:18;28.54;62.56
74940;HTU21D;63505;45.226;37.908;2023-07-13T06:40:44;28.75;62.21
74940;HTU21D;63505;45.226;37.908;2023-07-13T06:43:09;28.83;61.47
74940;HTU21D;63505;45.226;37.908;2023-07-13T06:45:41;28.80;60.13
74940;HTU21D;63505;45.226;37.908;2023-07-13T06:48:07;28.85;59.50
74940;HTU21D;63505;45.226;37.908;2023-07-13T06:50:33;28.97;58.99
74940;HTU21D;63505;45.226;37.908;2023-07-13T06:53:00;29.20;58.59
74940;HTU21D;63505;45.226;37.908;2023-07-13T06:55:26;29.41;57.90
74940;HTU21D;63505;45.226;37.908;2023-07-13T06:57:52;29.28;57.94
74940;HTU21D;63505;45.226;37.908;2023-07-13T07:00:17;29.39;57.86
74940;HTU21D;63505;45.226;37.908;2023-07-13T07:02:44;29.45;57.23
74940;HTU21D;63505;45.226;37.908;2023-07-13T07:05:10;29.38;56.93
74940;HTU21D;63505;45.226;37.908;2023-07-13T07:07:37;29.39;56.89
74940;HTU21D;63505;45.226;37.908;2023-07-13T07:10:03;29.44;56.77
74940;HTU21D;63505;45.226;37.908;2023-07-13T07:12:30;29.33;56.71
74940;HTU21D;63505;45.226;37.908;2023-07-13T07:14:56;29.34;56.32
74940;HTU21D;63505;45.226;37.908;2023-07-13T07:17:23;29.41;56.13
74940;HTU21D;63505;45.226;37.908;2023-07-13T07:19:48;29.52;55.39
74940;HTU21D;63505;45.226;37.908;2023-07-13T07:22:14;29.72;54.61
74940;HTU21D;63505;45.226;37.908;2023-07-13T07:24:40;29.85;54.06
74940;HTU21D;63505;45.226;37.908;2023-07-13T07:27:06;29.88;52.16
74940;HTU21D;63505;45.226;37.908;2023-07-13T07:29:32;29.94;52.36
74940;HTU21D;63505;45.226;37.908;2023-07-13T07:31:59;30.18;52.15
74940;HTU21D;63505;45.226;37.908;2023-07-13T07:34:25;30.36;52.08
74940;HTU21D;63505;45.226;37.908;2023-07-13T07:36:51;30.54;51.69
74940;HTU21D;63505;45.226;37.908;2023-07-13T07:39:17;30.53;51.56
74940;HTU21D;63505;45.226;37.908;2023-07-13T07:41:43;30.35;52.02
74940;HTU21D;63505;45.226;37.908;2023-07-13T07:44:09;30.19;52.49
74940;HTU21D;63505;45.226;37.908;2023-07-13T07:46:36;30.17;52.62
74940;HTU21D;63505;45.226;37.908;2023-07-13T07:49:01;30.25;52.71
74940;HTU21D;63505;45.226;37.908;2023-07-13T07:51:27;30.26;52.52
74940;HTU21D;63505;45.226;37.908;2023-07-13T07:53:53;30.20;52.50
74940;HTU21D;63505;45.226;37.908;2023-07-13T07:56:20;30.21;52.89
74940;HTU21D;63505;45.226;37.908;2023-07-13T07:58:46;30.24;52.98
74940;HTU21D;63505;45.226;37.908;2023-07-13T08:01:12;30.20;52.71
74940;HTU21D;63505;45.226;37.908;2023-07-13T08:03:37;30.20;52.42
74940;HTU21D;63505;45.226;37.908;2023-07-13T08:06:03;30.28;52.04
74940;HTU21D;63505;45.226;37.908;2023-07-13T08:08:29;30.48;51.14
74940;HTU21D;63505;45.226;37.908;2023-07-13T08:10:55;30.52;50.24
74940;HTU21D;63505;45.226;37.908;2023-07-13T08:13:21;30.52;50.57
74940;HTU21D;63505;45.226;37.908;2023-07-13T08:15:47;30.60;50.36
74940;HTU21D;63505;45.226;37.908;2023-07-13T08:18:17;30.71;50.58
74940;HTU21D;63505;45.226;37.908;2023-07-13T08:20:43;30.94;50.52
74940;HTU21D;63505;45.226;37.908;2023-07-13T08:23:10;31.18;49.94
74940;HTU21D;63505;45.226;37.908;2023-07-13T08:25:36;31.37;49.46
74940;HTU21D;63505;45.226;37.908;2023-07-13T08:28:03;31.59;49.05
74940;HTU21D;63505;45.226;37.908;2023-07-13T08:30:29;31.68;48.92
74940;HTU21D;63505;45.226;37.908;2023-07-13T08:32:55;31.64;48.77
74940;HTU21D;63505;45.226;37.908;2023-07-13T08:35:21;31.56;48.47
74940;HTU21D;63505;45.226;37.908;2023-07-13T08:37:47;31.54;48.37
74940;HTU21D;63505;45.226;37.908;2023-07-13T08:40:13;31.43;48.44
74940;HTU21D;63505;45.226;37.908;2023-07-13T08:42:46;31.42;48.05
74940;HTU21D;63505;45.226;37.908;2023-07-13T08:45:22;31.51;48.24
74940;HTU21D;63505;45.226;37.908;2023-07-13T08:47:51;31.56;48.72
74940;HTU21D;63505;45.226;37.908;2023-07-13T08:50:23;31.55;48.12
74940;HTU21D;63505;45.226;37.908;2023-07-13T08:52:50;31.51;47.79
74940;HTU21D;63505;45.226;37.908;2023-07-13T08:55:19;31.51;47.66
74940;HTU21D;63505;45.226;37.908;2023-07-13T08:57:53;31.74;47.45
74940;HTU21D;63505;45.226;37.908;2023-07-13T09:00:25;31.75;47.43
74940;HTU21D;63505;45.226;37.908;2023-07-13T09:03:02;31.64;47.47
74940;HTU21D;63505;45.226;37.908;2023-07-13T09:05:38;31.70;47.63
74940;HTU21D;63505;45.226;37.908;2023-07-13T09:10:49;31.85;47.83
74940;HTU21D;63505;45.226;37.908;2023-07-13T09:16:00;31.89;47.37
74940;HTU21D;63505;45.226;37.908;2023-07-13T09:21:07;31.71;46.70
74940;HTU21D;63505;45.226;37.908;2023-07-13T09:23:36;31.69;46.77
74940;HTU21D;63505;45.226;37.908;2023-07-13T09:26:14;31.70;47.13
74940;HTU21D;63505;45.226;37.908;2023-07-13T09:28:44;31.70;47.41
74940;HTU21D;63505;45.226;37.908;2023-07-13T09:33:47;31.89;46.97
74940;HTU21D;63505;45.226;37.908;2023-07-13T09:36:31;32.02;46.36
74940;HTU21D;63505;45.226;37.908;2023-07-13T09:39:35;31.96;46.53
74940;HTU21D;63505;45.226;37.908;2023-07-13T09:42:15;31.69;47.17
74940;HTU21D;63505;45.226;37.908;2023-07-13T09:45:00;31.61;47.64
74940;HTU21D;63505;45.226;37.908;2023-07-13T09:47:30;31.45;47.67
74940;HTU21D;63505;45.226;37.908;2023-07-13T09:52:44;31.07;48.11
74940;HTU21D;63505;45.226;37.908;2023-07-13T09:55:32;31.24;48.16
74940;HTU21D;63505;45.226;37.908;2023-07-13T09:58:05;31.46;48.06
74940;HTU21D;63505;45.226;37.908;2023-07-13T10:00:35;31.59;48.03
74940;HTU21D;63505;45.226;37.908;2023-07-13T10:03:22;31.78;47.55
74940;HTU21D;63505;45.226;37.908;2023-07-13T10:05:51;31.92;47.54
74940;HTU21D;63505;45.226;37.908;2023-07-13T10:08:27;32.12;46.74
74940;HTU21D;63505;45.226;37.908;2023-07-13T10:11:01;32.01;46.92
74940;HTU21D;63505;45.226;37.908;2023-07-13T10:16:20;31.94;47.41
74940;HTU21D;63505;45.226;37.908;2023-07-13T10:18:53;32.04;47.24
74940;HTU21D;63505;45.226;37.908;2023-07-13T10:21:22;32.02;47.41
74940;HTU21D;63505;45.226;37.908;2023-07-13T10:26:33;31.88;46.93
74940;HTU21D;63505;45.226;37.908;2023-07-13T10:29:07;31.74;46.93
74940;HTU21D;63505;45.226;37.908;2023-07-13T10:31:36;31.56;47.58
74940;HTU21D;63505;45.226;37.908;2023-07-13T10:34:03;31.29;47.77
74940;HTU21D;63505;45.226;37.908;2023-07-13T10:36:36;31.06;48.05
74940;HTU21D;63505;45.226;37.908;2023-07-13T10:39:04;30.97;48.15
74940;HTU21D;63505;45.226;37.908;2023-07-13T10:41:36;30.85;48.43
74940;HTU21D;63505;45.226;37.908;2023-07-13T10:44:05;30.72;48.43
74940;HTU21D;63505;45.226;37.908;2023-07-13T10:46:35;30.77;48.73
74940;HTU21D;63505;45.226;37.908;2023-07-13T10:49:05;30.82;48.64
74940;HTU21D;63505;45.226;37.908;2023-07-13T10:51:31;30.91;48.71
74940;HTU21D;63505;45.226;37.908;2023-07-13T10:54:11;31.00;48.88
74940;HTU21D;63505;45.226;37.908;2023-07-13T10:56:39;31.09;49.28
74940;HTU21D;63505;45.226;37.908;2023-07-13T10:59:24;31.29;49.14
74940;HTU21D;63505;45.226;37.908;2023-07-13T11:02:08;31.49;49.04
74940;HTU21D;63505;45.226;37.908;2023-07-13T11:04:44;31.66;48.91
74940;HTU21D;63505;45.226;37.908;2023-07-13T11:09:50;31.97;48.87
74940;HTU21D;63505;45.226;37.908;2023-07-13T11:20:20;32.15;49.05
74940;HTU21D;63505;45.226;37.908;2023-07-13T11:22:53;32.09;49.44
74940;HTU21D;63505;45.226;37.908;2023-07-13T11:25:34;32.11;49.13
74940;HTU21D;63505;45.226;37.908;2023-07-13T11:30:59;31.75;48.93
74940;HTU21D;63505;45.226;37.908;2023-07-13T11:36:15;31.37;49.98
74940;HTU21D;63505;45.226;37.908;2023-07-13T11:38:47;31.38;50.03
74940;HTU21D;63505;45.226;37.908;2023-07-13T11:41:23;31.40;50.12
74940;HTU21D;63505;45.226;37.908;2023-07-13T11:43:53;31.42;49.90
74940;HTU21D;63505;45.226;37.908;2023-07-13T11:46:25;31.48;49.85
74940;HTU21D;63505;45.226;37.908;2023-07-13T11:48:52;31.54;49.92
74940;HTU21D;63505;45.226;37.908;2023-07-13T11:51:25;31.63;49.76
74940;HTU21D;63505;45.226;37.908;2023-07-13T11:53:54;31.68;49.72
74940;HTU21D;63505;45.226;37.908;2023-07-13T11:56:21;31.60;49.47
74940;HTU21D;63505;45.226;37.908;2023-07-13T11:58:53;31.41;49.70
74940;HTU21D;63505;45.226;37.908;2023-07-13T12:01:24;31.18;50.10
74940;HTU21D;63505;45.226;37.908;2023-07-13T12:03:52;31.05;50.49
74940;HTU21D;63505;45.226;37.908;2023-07-13T12:06:28;31.14;50.47
74940;HTU21D;63505;45.226;37.908;2023-07-13T12:09:02;31.28;50.41
74940;HTU21D;63505;45.226;37.908;2023-07-13T12:11:29;31.31;49.93
74940;HTU21D;63505;45.226;37.908;2023-07-13T12:13:55;31.21;49.72
74940;HTU21D;63505;45.226;37.908;2023-07-13T12:16:30;31.01;49.98
74940;HTU21D;63505;45.226;37.908;2023-07-13T12:19:00;30.81;50.35
74940;HTU21D;63505;45.226;37.908;2023-07-13T12:21:32;30.64;50.47
74940;HTU21D;63505;45.226;37.908;2023-07-13T12:23:58;30.47;50.69
74940;HTU21D;63505;45.226;37.908;2023-07-13T12:26:24;30.28;51.02
74940;HTU21D;63505;45.226;37.908;2023-07-13T12:28:53;30.10;51.33
74940;HTU21D;63505;45.226;37.908;2023-07-13T12:31:44;29.93;51.59
74940;HTU21D;63505;45.226;37.908;2023-07-13T12:34:14;29.76;51.82
74940;HTU21D;63505;45.226;37.908;2023-07-13T12:37:02;29.65;52.17
74940;HTU21D;63505;45.226;37.908;2023-07-13T12:42:20;29.53;52.66
74940;HTU21D;63505;45.226;37.908;2023-07-13T12:44:49;29.49;52.74
74940;HTU21D;63505;45.226;37.908;2023-07-13T12:47:16;29.48;52.87
74940;HTU21D;63505;45.226;37.908;2023-07-13T12:49:48;29.44;52.83
74940;HTU21D;63505;45.226;37.908;2023-07-13T12:52:28;29.34;52.98
74940;HTU21D;63505;45.226;37.908;2023-07-13T12:55:10;29.24;53.14
74940;HTU21D;63505;45.226;37.908;2023-07-13T12:57:43;29.22;53.30
74940;HTU21D;63505;45.226;37.908;2023-07-13T13:00:32;29.31;53.37
74940;HTU21D;63505;45.226;37.908;2023-07-13T13:03:04;29.45;53.18
74940;HTU21D;63505;45.226;37.908;2023-07-13T13:05:32;29.49;53.14
74940;HTU21D;63505;45.226;37.908;2023-07-13T13:08:00;29.57;53.24
74940;HTU21D;63505;45.226;37.908;2023-07-13T13:10:26;29.63;53.16
74940;HTU21D;63505;45.226;37.908;2023-07-13T13:12:52;29.57;53.20
74940;HTU21D;63505;45.226;37.908;2023-07-13T13:15:19;29.52;53.43
74940;HTU21D;63505;45.226;37.908;2023-07-13T13:17:46;29.50;53.75
74940;HTU21D;63505;45.226;37.908;2023-07-13T13:20:19;29.59;53.93
74940;HTU21D;63505;45.226;37.908;2023-07-13T13:22:45;29.66;53.78
74940;HTU21D;63505;45.226;37.908;2023-07-13T13:25:11;29.67;53.78
74940;HTU21D;63505;45.226;37.908;2023-07-13T13:27:39;29.61;53.93
74940;HTU21D;63505;45.226;37.908;2023-07-13T13:30:17;29.57;54.33
74940;HTU21D;63505;45.226;37.908;2023-07-13T13:32:47;29.51;54.42
74940;HTU21D;63505;45.226;37.908;2023-07-13T13:35:15;29.38;54.65
74940;HTU21D;63505;45.226;37.908;2023-07-13T13:37:42;29.23;55.03
74940;HTU21D;63505;45.226;37.908;2023-07-13T13:40:19;29.13;55.42
74940;HTU21D;63505;45.226;37.908;2023-07-13T13:42:45;29.02;55.55
74940;HTU21D;63505;45.226;37.908;2023-07-13T13:45:11;28.94;55.58
74940;HTU21D;63505;45.226;37.908;2023-07-13T13:47:46;28.83;55.73
74940;HTU21D;63505;45.226;37.908;2023-07-13T13:50:20;28.68;55.92
74940;HTU21D;63505;45.226;37.908;2023-07-13T13:52:47;28.65;56.07
74940;HTU21D;63505;45.226;37.908;2023-07-13T13:55:17;28.64;56.11
74940;HTU21D;63505;45.226;37.908;2023-07-13T13:57:48;28.60;56.32
74940;HTU21D;63505;45.226;37.908;2023-07-13T14:00:16;28.65;56.23
74940;HTU21D;63505;45.226;37.908;2023-07-13T14:02:45;28.71;56.16
74940;HTU21D;63505;45.226;37.908;2023-07-13T14:05:15;28.80;56.16
74940;HTU21D;63505;45.226;37.908;2023-07-13T14:07:41;28.92;56.11
74940;HTU21D;63505;45.226;37.908;2023-07-13T14:10:15;29.06;55.92
74940;HTU21D;63505;45.226;37.908;2023-07-13T14:12:42;29.06;55.86
74940;HTU21D;63505;45.226;37.908;2023-07-13T14:15:30;28.95;55.89
74940;HTU21D;63505;45.226;37.908;2023-07-13T14:17:59;28.99;56.03
74940;HTU21D;63505;45.226;37.908;2023-07-13T14:20:25;29.00;55.91
74940;HTU21D;63505;45.226;37.908;2023-07-13T14:22:52;28.92;55.98
74940;HTU21D;63505;45.226;37.908;2023-07-13T14:25:20;28.80;56.19
74940;HTU21D;63505;45.226;37.908;2023-07-13T14:27:55;28.63;56.33
74940;HTU21D;63505;45.226;37.908;2023-07-13T14:30:24;28.55;56.49
74940;HTU21D;63505;45.226;37.908;2023-07-13T14:32:51;28.61;56.61
74940;HTU21D;63505;45.226;37.908;2023-07-13T14:35:20;28.71;56.44
74940;HTU21D;63505;45.226;37.908;2023-07-13T14:37:47;28.70;56.43
74940;HTU21D;63505;45.226;37.908;2023-07-13T14:40:15;28.62;56.40
74940;HTU21D;63505;45.226;37.908;2023-07-13T14:42:42;28.56;56.39
74940;HTU21D;63505;45.226;37.908;2023-07-13T14:45:17;28.58;56.43
74940;HTU21D;63505;45.226;37.908;2023-07-13T14:47:43;28.61;56.47
74940;HTU21D;63505;45.226;37.908;2023-07-13T14:52:39;28.60;56.20
74940;HTU21D;63505;45.226;37.908;2023-07-13T14:55:16;28.58;56.16
74940;HTU21D;63505;45.226;37.908;2023-07-13T14:57:42;28.53;56.33
74940;HTU21D;63505;45.226;37.908;2023-07-13T15:00:16;28.52;56.46
74940;HTU21D;63505;45.226;37.908;2023-07-13T15:02:52;28.49;56.68
74940;HTU21D;63505;45.226;37.908;2023-07-13T15:05:23;28.47;56.74
74940;HTU21D;63505;45.226;37.908;2023-07-13T15:07:50;28.46;56.97
74940;HTU21D;63505;45.226;37.908;2023-07-13T15:10:19;28.42;57.03
74940;HTU21D;63505;45.226;37.908;2023-07-13T15:12:46;28.42;57.00
74940;HTU21D;63505;45.226;37.908;2023-07-13T15:15:13;28.38;57.06
74940;HTU21D;63505;45.226;37.908;2023-07-13T15:17:43;28.33;57.19
74940;HTU21D;63505;45.226;37.908;2023-07-13T15:20:34;28.30;57.32
74940;HTU21D;63505;45.226;37.908;2023-07-13T15:23:02;28.24;57.40
74940;HTU21D;63505;45.226;37.908;2023-07-13T15:25:31;28.17;57.59
74940;HTU21D;63505;45.226;37.908;2023-07-13T15:27:59;28.13;57.70
74940;HTU21D;63505;45.226;37.908;2023-07-13T15:30:29;28.08;57.82
74940;HTU21D;63505;45.226;37.908;2023-07-13T15:33:11;28.03;57.95
74940;HTU21D;63505;45.226;37.908;2023-07-13T15:35:37;27.98;58.03
74940;HTU21D;63505;45.226;37.908;2023-07-13T15:38:14;27.97;58.04
74940;HTU21D;63505;45.226;37.908;2023-07-13T15:40:41;27.89;57.79
74940;HTU21D;63505;45.226;37.908;2023-07-13T15:43:11;27.84;57.48
74940;HTU21D;63505;45.226;37.908;2023-07-13T15:45:39;27.79;57.30
74940;HTU21D;63505;45.226;37.908;2023-07-13T15:48:25;27.73;57.16
74940;HTU21D;63505;45.226;37.908;2023-07-13T15:50:54;27.69;57.19
74940;HTU21D;63505;45.226;37.908;2023-07-13T15:53:27;27.63;57.12
74940;HTU21D;63505;45.226;37.908;2023-07-13T15:55:54;27.59;57.23